createdAt,value
2018-08-09T04:00:36.043Z,17.65
2018-08-09T04:01:36.020Z,17.66
2018-08-09T04:02:36.028Z,17.73
2018-08-09T04:03:35.997Z,17.66
2018-08-09T04:04:35.962Z,17.70
2018-08-09T04:05:35.956Z,17.62
2018-08-09T04:06:35.956Z,17.62
2018-08-09T04:07:35.932Z,17.65
2018-08-09T04:08:35.929Z,17.71
2018-08-09T04:09:35.908Z,17.63
2018-08-09T04:10:35.896Z,17.62
2018-08-09T04:11:35.901Z,17.62
2018-08-09T04:12:35.895Z,17.62
2018-08-09T04:13:35.873Z,17.63
2018-08-09T04:14:35.882Z,17.62
2018-08-09T04:15:35.845Z,17.70
2018-08-09T04:16:35.844Z,17.65
2018-08-09T04:17:35.823Z,17.60
2018-08-09T04:18:35.808Z,17.71
2018-08-09T04:19:35.803Z,17.62
2018-08-09T04:20:35.788Z,17.65
2018-08-09T04:21:35.804Z,17.65
2018-08-09T04:22:35.764Z,17.63
2018-08-09T04:23:35.767Z,17.60
2018-08-09T04:24:35.743Z,17.58
2018-08-09T04:25:35.759Z,17.57
2018-08-09T04:26:35.827Z,17.65
2018-08-09T04:27:36.371Z,17.57
2018-08-09T04:28:35.704Z,17.54
2018-08-09T04:29:35.691Z,17.60
2018-08-09T04:30:35.674Z,17.60
2018-08-09T04:31:35.705Z,17.57
2018-08-09T04:32:35.652Z,17.60
2018-08-09T04:33:35.640Z,17.57
2018-08-09T04:34:35.637Z,17.57
2018-08-09T04:35:35.622Z,17.57
2018-08-09T04:36:35.611Z,17.57
2018-08-09T04:37:35.619Z,17.58
2018-08-09T04:38:35.586Z,17.47
2018-08-09T04:39:35.589Z,17.43
2018-08-09T04:40:35.572Z,17.55
2018-08-09T04:41:35.576Z,17.55
2018-08-09T04:42:35.554Z,17.54
2018-08-09T04:43:35.535Z,17.51
2018-08-09T04:44:35.523Z,17.49
2018-08-09T04:45:35.514Z,17.47
2018-08-09T04:46:35.499Z,17.54
2018-08-09T04:47:35.509Z,17.57
2018-08-09T04:48:35.476Z,17.53
2018-08-09T04:49:35.470Z,17.54
2018-08-09T04:50:35.456Z,17.46
2018-08-09T04:51:35.454Z,17.55
2018-08-09T04:52:35.442Z,17.51
2018-08-09T04:53:35.419Z,17.55
2018-08-09T04:54:35.415Z,17.54
2018-08-09T04:55:35.400Z,17.53
2018-08-09T04:56:35.390Z,17.54
2018-08-09T04:57:35.389Z,17.54
2018-08-09T04:58:35.371Z,17.51
2018-08-09T04:59:35.356Z,17.49
2018-08-09T05:00:35.351Z,17.57
2018-08-09T05:01:35.334Z,17.54
2018-08-09T05:02:35.336Z,17.54
2018-08-09T05:03:35.311Z,17.47
2018-08-09T05:04:35.299Z,17.54
2018-08-09T05:05:35.290Z,17.55
2018-08-09T05:06:35.281Z,17.57
2018-08-09T05:07:35.280Z,17.54
2018-08-09T05:08:35.255Z,17.54
2018-08-09T05:09:35.246Z,17.60
2018-08-09T05:10:35.237Z,17.58
2018-08-09T05:11:35.238Z,17.58
2018-08-09T05:12:35.227Z,17.68
2018-08-09T05:13:35.199Z,17.63
2018-08-09T05:14:35.190Z,17.68
2018-08-09T05:15:35.181Z,17.71
2018-08-09T05:16:35.170Z,17.63
2018-08-09T05:17:35.171Z,17.66
2018-08-09T05:18:35.146Z,17.66
2018-08-09T05:19:35.136Z,17.71
2018-08-09T05:20:35.123Z,17.66
2018-08-09T05:21:35.119Z,17.65
2018-08-09T05:22:35.114Z,17.73
2018-08-09T05:23:35.096Z,17.71
2018-08-09T05:24:35.090Z,17.79
2018-08-09T05:25:35.069Z,17.76
2018-08-09T05:26:35.067Z,17.79
2018-08-09T05:27:35.073Z,17.71
2018-08-09T05:28:35.049Z,17.87
2018-08-09T05:29:35.031Z,17.77
2018-08-09T05:30:35.017Z,17.71
2018-08-09T05:31:35.002Z,17.83
2018-08-09T05:32:34.991Z,17.86
2018-08-09T05:33:35.002Z,17.87
2018-08-09T05:34:34.973Z,17.79
2018-08-09T05:35:34.990Z,17.86
2018-08-09T05:36:34.947Z,17.87
2018-08-09T05:37:34.938Z,17.81
2018-08-09T05:38:34.945Z,17.94
2018-08-09T05:39:34.914Z,17.84
2018-08-09T05:40:34.904Z,17.87
2018-08-09T05:41:34.895Z,17.89
2018-08-09T05:42:34.888Z,17.83
2018-08-09T05:43:34.897Z,17.83
2018-08-09T05:44:34.864Z,17.84
2018-08-09T05:45:34.854Z,17.89
2018-08-09T05:46:34.864Z,17.86
2018-08-09T05:47:34.827Z,17.84
2018-08-09T05:48:34.833Z,17.87
2018-08-09T05:49:34.802Z,17.91
2018-08-09T05:50:34.804Z,17.92
2018-08-09T05:51:34.779Z,17.94
2018-08-09T05:52:34.800Z,17.89
2018-08-09T05:53:34.768Z,17.94
2018-08-09T05:54:34.746Z,17.92
2018-08-09T05:55:34.736Z,17.91
2018-08-09T05:56:34.732Z,18.01
2018-08-09T05:57:34.714Z,18.02
2018-08-09T05:58:34.795Z,18.02
2018-08-09T05:59:34.697Z,18.05
2018-08-09T06:00:34.692Z,18.07
2018-08-09T06:01:34.674Z,18.10
2018-08-09T06:02:34.667Z,18.13
2018-08-09T06:03:34.660Z,18.14
2018-08-09T06:04:34.691Z,18.13
2018-08-09T06:05:34.667Z,18.16
2018-08-09T06:06:34.662Z,18.20
2018-08-09T06:07:34.612Z,18.26
2018-08-09T06:08:34.623Z,18.26
2018-08-09T06:09:34.609Z,18.25
2018-08-09T06:10:34.572Z,18.34
2018-08-09T06:11:34.570Z,18.34
2018-08-09T06:12:34.556Z,18.31
2018-08-09T06:13:34.670Z,18.47
2018-08-09T06:14:34.549Z,18.53
2018-08-09T06:15:34.525Z,18.78
2018-08-09T06:16:34.509Z,18.90
2018-08-09T06:17:34.496Z,19.10
2018-08-09T06:18:34.516Z,19.27
2018-08-09T06:19:34.484Z,19.49
2018-08-09T06:20:34.461Z,19.53
2018-08-09T06:21:34.460Z,19.67
2018-08-09T06:22:34.438Z,19.86
2018-08-09T06:23:34.469Z,19.97
2018-08-09T06:24:34.430Z,20.12
2018-08-09T06:25:34.422Z,20.33
2018-08-09T06:26:34.457Z,20.42
2018-08-09T06:27:34.382Z,20.56
2018-08-09T06:28:34.374Z,20.58
2018-08-09T06:29:34.401Z,20.72
2018-08-09T06:30:34.353Z,20.96
2018-08-09T06:31:34.341Z,21.09
2018-08-09T06:32:34.328Z,21.18
2018-08-09T06:33:34.453Z,21.26
2018-08-09T06:34:34.319Z,21.38
2018-08-09T06:35:34.297Z,21.49
2018-08-09T06:36:34.283Z,21.59
2018-08-09T06:37:34.278Z,21.66
2018-08-09T06:38:34.269Z,21.81
2018-08-09T06:39:34.263Z,21.98
2018-08-09T06:40:34.243Z,22.05
2018-08-09T06:41:34.235Z,22.23
2018-08-09T06:42:34.221Z,22.35
2018-08-09T06:43:34.209Z,22.36
2018-08-09T06:44:34.214Z,22.42
2018-08-09T06:45:34.187Z,22.56
2018-08-09T06:46:34.174Z,22.64
2018-08-09T06:47:34.214Z,22.69
2018-08-09T06:48:34.153Z,22.84
2018-08-09T06:49:34.153Z,22.97
2018-08-09T06:50:34.131Z,23.15
2018-08-09T06:51:34.126Z,23.16
2018-08-09T06:52:34.111Z,23.19
2018-08-09T06:53:34.100Z,23.21
2018-08-09T06:54:34.097Z,23.11
2018-08-09T06:55:34.075Z,22.99
2018-08-09T06:56:34.071Z,22.82
2018-08-09T06:57:34.058Z,22.76
2018-08-09T06:58:34.047Z,22.70
2018-08-09T06:59:34.062Z,22.57
2018-08-09T07:00:34.029Z,22.54
2018-08-09T07:01:34.013Z,22.60
2018-08-09T07:02:34.038Z,22.59
2018-08-09T07:03:33.988Z,22.60
2018-08-09T07:04:33.995Z,22.60
2018-08-09T07:05:33.982Z,22.64
2018-08-09T07:06:33.955Z,22.64
2018-08-09T07:07:33.959Z,22.63
2018-08-09T07:08:33.937Z,22.67
2018-08-09T07:09:33.924Z,22.69
2018-08-09T07:10:33.925Z,22.64
2018-08-09T07:11:33.901Z,22.60
2018-08-09T07:12:33.894Z,22.59
2018-08-09T07:13:33.882Z,22.56
2018-08-09T07:14:33.868Z,22.61
2018-08-09T07:15:33.872Z,22.74
2018-08-09T07:16:33.847Z,22.82
2018-08-09T07:17:33.841Z,23.18
2018-08-09T07:18:33.828Z,23.35
2018-08-09T07:19:33.817Z,23.54
2018-08-09T07:20:33.817Z,23.81
2018-08-09T07:21:33.797Z,23.89
2018-08-09T07:22:33.783Z,23.97
2018-08-09T07:23:33.771Z,23.97
2018-08-09T07:24:33.761Z,23.90
2018-08-09T07:25:33.767Z,23.86
2018-08-09T07:26:33.856Z,23.81
2018-08-09T07:27:33.730Z,23.89
2018-08-09T07:28:33.719Z,23.92
2018-08-09T07:29:33.726Z,23.90
2018-08-09T07:30:33.713Z,24.08
2018-08-09T07:31:33.685Z,24.08
2018-08-09T07:32:33.675Z,24.37
2018-08-09T07:33:33.666Z,24.67
2018-08-09T07:34:33.658Z,24.80
2018-08-09T07:35:33.653Z,25.08
2018-08-09T07:36:33.674Z,24.89
2018-08-09T07:37:33.619Z,24.79
2018-08-09T07:38:33.609Z,24.80
2018-08-09T07:39:33.690Z,24.75
2018-08-09T07:40:33.599Z,24.89
2018-08-09T07:41:33.579Z,24.99
2018-08-09T07:42:33.568Z,25.12
2018-08-09T07:43:33.555Z,25.22
2018-08-09T07:44:33.547Z,25.02
2018-08-09T07:45:33.550Z,24.98
2018-08-09T07:46:33.526Z,24.90
2018-08-09T07:47:33.516Z,24.83
2018-08-09T07:48:33.584Z,24.75
2018-08-09T07:49:33.492Z,24.71
2018-08-09T07:50:33.504Z,24.77
2018-08-09T07:51:33.468Z,24.82
2018-08-09T07:52:33.464Z,24.74
2018-08-09T07:53:33.448Z,24.90
2018-08-09T07:54:33.439Z,24.94
2018-08-09T07:55:33.439Z,25.01
2018-08-09T07:56:33.416Z,25.08
2018-08-09T07:57:33.419Z,25.31
2018-08-09T07:58:33.391Z,25.54
2018-08-09T07:59:33.383Z,25.79
2018-08-09T08:00:34.861Z,26.03
2018-08-09T08:01:33.359Z,26.21
2018-08-09T08:02:33.350Z,26.49
2018-08-09T08:03:33.447Z,26.65
2018-08-09T08:04:33.476Z,26.81
2018-08-09T08:05:33.425Z,27.05
2018-08-09T08:06:33.535Z,27.08
2018-08-09T08:07:33.393Z,27.01
2018-08-09T08:08:33.430Z,27.11
2018-08-09T08:09:33.275Z,27.28
2018-08-09T08:10:33.311Z,27.34
2018-08-09T08:11:33.263Z,27.43
2018-08-09T08:12:33.245Z,27.48
2018-08-09T08:13:33.233Z,27.65
2018-08-09T08:14:33.220Z,27.71
2018-08-09T08:15:33.208Z,27.78
2018-08-09T08:16:33.212Z,27.93
2018-08-09T08:17:33.223Z,28.02
2018-08-09T08:18:33.211Z,28.18
2018-08-09T08:19:33.164Z,28.32
2018-08-09T08:20:33.161Z,28.40
2018-08-09T08:21:33.156Z,28.40
2018-08-09T08:22:33.137Z,28.58
2018-08-09T08:23:33.125Z,28.82
2018-08-09T08:24:33.112Z,29.05
2018-08-09T08:25:33.102Z,29.12
2018-08-09T08:26:33.099Z,29.33
2018-08-09T08:27:33.081Z,29.48
2018-08-09T08:28:33.074Z,29.42
2018-08-09T08:29:33.061Z,29.55
2018-08-09T08:30:33.048Z,29.76
2018-08-09T08:31:33.047Z,29.79
2018-08-09T08:32:33.028Z,29.88
2018-08-09T08:33:33.016Z,29.84
2018-08-09T08:34:33.012Z,29.92
2018-08-09T08:35:33.000Z,29.91
2018-08-09T08:36:33.019Z,30.04
2018-08-09T08:37:32.974Z,30.21
2018-08-09T08:38:33.027Z,30.23
2018-08-09T08:39:32.964Z,30.26
2018-08-09T08:40:32.940Z,30.26
2018-08-09T08:41:32.946Z,30.03
2018-08-09T08:42:33.010Z,30.18
2018-08-09T08:43:32.908Z,30.23
2018-08-09T08:44:32.990Z,30.23
2018-08-09T08:45:32.888Z,30.51
2018-08-09T08:46:32.887Z,30.68
2018-08-09T08:47:32.918Z,30.83
2018-08-09T08:48:32.855Z,31.09
2018-08-09T08:49:32.844Z,31.09
2018-08-09T08:50:32.830Z,31.22
2018-08-09T08:51:32.827Z,31.23
2018-08-09T08:52:32.842Z,31.16
2018-08-09T08:53:32.812Z,31.31
2018-08-09T08:54:32.795Z,31.49
2018-08-09T08:55:32.782Z,31.65
2018-08-09T08:56:32.772Z,31.53
2018-08-09T08:57:32.782Z,31.56
2018-08-09T08:58:32.757Z,31.60
2018-08-09T08:59:32.740Z,31.53
2018-08-09T09:00:32.726Z,31.47
2018-08-09T09:01:32.715Z,31.54
2018-08-09T09:02:32.734Z,31.68
2018-08-09T09:03:32.700Z,31.79
2018-08-09T09:04:32.694Z,31.92
2018-08-09T09:05:32.681Z,31.94
2018-08-09T09:06:32.661Z,32.12
2018-08-09T09:07:32.695Z,32.25
2018-08-09T09:08:32.667Z,32.41
2018-08-09T09:09:32.631Z,32.46
2018-08-09T09:10:32.621Z,32.54
2018-08-09T09:11:32.610Z,32.73
2018-08-09T09:12:32.635Z,32.99
2018-08-09T09:13:32.590Z,33.12
2018-08-09T09:14:32.578Z,33.22
2018-08-09T09:15:32.569Z,33.29
2018-08-09T09:16:32.567Z,33.37
2018-08-09T09:17:32.579Z,33.45
2018-08-09T09:18:32.532Z,33.43
2018-08-09T09:19:32.537Z,33.55
2018-08-09T09:20:32.511Z,33.66
2018-08-09T09:21:32.512Z,33.82
2018-08-09T09:22:32.519Z,33.92
2018-08-09T09:23:32.483Z,34.06
2018-08-09T09:24:32.467Z,34.12
2018-08-09T09:25:32.480Z,34.50
2018-08-09T09:26:32.447Z,34.64
2018-08-09T09:27:32.449Z,34.80
2018-08-09T09:28:32.440Z,34.75
2018-08-09T09:29:32.414Z,34.88
2018-08-09T09:30:32.416Z,34.88
2018-08-09T09:31:32.399Z,34.86
2018-08-09T09:32:32.427Z,35.10
2018-08-09T09:33:32.377Z,35.18
2018-08-09T09:34:32.357Z,35.12
2018-08-09T09:35:32.351Z,35.05
2018-08-09T09:36:32.440Z,35.02
2018-08-09T09:37:32.325Z,34.81
2018-08-09T09:38:32.340Z,34.80
2018-08-09T09:39:32.318Z,34.56
2018-08-09T09:40:32.295Z,34.67
2018-08-09T09:41:32.290Z,34.30
2018-08-09T09:42:32.298Z,34.28
2018-08-09T09:43:32.302Z,34.01
2018-08-09T09:44:32.253Z,34.03
2018-08-09T09:45:32.251Z,34.50
2018-08-09T09:46:32.234Z,34.49
2018-08-09T09:47:32.236Z,34.48
2018-08-09T09:48:32.236Z,34.63
2018-08-09T09:49:32.208Z,34.61
2018-08-09T09:50:32.186Z,34.55
2018-08-09T09:51:32.185Z,34.53
2018-08-09T09:52:32.166Z,34.58
2018-08-09T09:53:32.172Z,34.73
2018-08-09T09:54:32.146Z,34.81
2018-08-09T09:55:32.134Z,34.71
2018-08-09T09:56:32.129Z,34.98
2018-08-09T09:57:32.110Z,35.10
2018-08-09T09:58:32.116Z,34.84
2018-08-09T09:59:32.085Z,34.63
2018-08-09T10:00:32.078Z,34.52
2018-08-09T10:01:32.066Z,34.40
2018-08-09T10:02:32.076Z,34.06
2018-08-09T10:03:32.070Z,33.65
2018-08-09T10:04:32.036Z,33.45
2018-08-09T10:05:32.019Z,33.26
2018-08-09T10:06:32.012Z,32.81
2018-08-09T10:07:32.003Z,32.44
2018-08-09T10:08:32.004Z,31.98
2018-08-09T10:09:31.987Z,31.78
2018-08-09T10:10:31.990Z,31.53
2018-08-09T10:11:31.961Z,31.31
2018-08-09T10:12:31.950Z,31.07
2018-08-09T10:13:31.986Z,31.03
2018-08-09T10:14:31.923Z,30.76
2018-08-09T10:15:31.916Z,30.73
2018-08-09T10:16:31.911Z,30.76
2018-08-09T10:17:31.900Z,30.61
2018-08-09T10:18:31.884Z,30.61
2018-08-09T10:19:31.904Z,30.30
2018-08-09T10:20:31.871Z,30.29
2018-08-09T10:21:31.847Z,30.28
2018-08-09T10:22:31.859Z,30.22
2018-08-09T10:23:31.826Z,30.22
2018-08-09T10:24:31.835Z,30.26
2018-08-09T10:25:31.817Z,30.26
2018-08-09T10:26:31.886Z,30.11
2018-08-09T10:27:31.798Z,30.10
2018-08-09T10:28:31.775Z,30.19
2018-08-09T10:29:31.784Z,30.13
2018-08-09T10:30:31.766Z,30.01
2018-08-09T10:31:31.745Z,30.01
2018-08-09T10:32:31.731Z,30.11
2018-08-09T10:33:31.732Z,30.13
2018-08-09T10:34:31.897Z,30.10
2018-08-09T10:35:31.723Z,30.01
2018-08-09T10:36:31.692Z,30.04
2018-08-09T10:37:31.680Z,30.03
2018-08-09T10:38:31.667Z,29.95
2018-08-09T10:39:31.704Z,29.97
2018-08-09T10:40:31.651Z,29.94
2018-08-09T10:41:31.650Z,29.94
2018-08-09T10:42:31.709Z,30.03
2018-08-09T10:43:31.626Z,30.15
2018-08-09T10:44:31.631Z,30.21
2018-08-09T10:45:31.590Z,30.23
2018-08-09T10:46:31.591Z,30.30
2018-08-09T10:47:31.583Z,30.45
2018-08-09T10:48:31.572Z,30.51
2018-08-09T10:49:31.582Z,30.57
2018-08-09T10:50:31.544Z,30.57
2018-08-09T10:51:31.542Z,30.59
2018-08-09T10:52:31.526Z,30.53
2018-08-09T10:53:31.513Z,30.48
2018-08-09T10:54:31.514Z,30.48
2018-08-09T10:55:31.522Z,30.49
2018-08-09T10:56:31.475Z,30.44
2018-08-09T10:57:31.466Z,30.37
2018-08-09T10:58:31.452Z,30.38
2018-08-09T10:59:31.456Z,30.42
2018-08-09T11:00:31.435Z,30.40
2018-08-09T11:01:31.426Z,30.42
2018-08-09T11:02:31.416Z,30.51
2018-08-09T11:03:31.413Z,30.49
2018-08-09T11:04:31.429Z,30.53
2018-08-09T11:05:31.380Z,30.46
2018-08-09T11:06:31.378Z,30.57
2018-08-09T11:07:31.364Z,30.51
2018-08-09T11:08:31.348Z,30.64
2018-08-09T11:09:31.390Z,30.67
2018-08-09T11:10:31.331Z,30.63
2018-08-09T11:11:31.316Z,30.60
2018-08-09T11:12:31.305Z,30.67
2018-08-09T11:13:31.320Z,30.64
2018-08-09T11:14:31.325Z,30.68
2018-08-09T11:15:31.280Z,30.67
2018-08-09T11:16:31.266Z,30.54
2018-08-09T11:17:31.260Z,30.51
2018-08-09T11:18:31.253Z,30.51
2018-08-09T11:19:31.232Z,30.59
2018-08-09T11:20:31.250Z,30.64
2018-08-09T11:21:31.210Z,30.54
2018-08-09T11:22:31.207Z,30.61
2018-08-09T11:23:31.210Z,30.60
2018-08-09T11:24:31.179Z,30.67
2018-08-09T11:25:31.201Z,30.49
2018-08-09T11:26:31.169Z,30.60
2018-08-09T11:27:31.150Z,30.61
2018-08-09T11:28:31.138Z,30.64
2018-08-09T11:29:31.133Z,30.67
2018-08-09T11:30:31.233Z,30.67
2018-08-09T11:31:31.111Z,30.70
2018-08-09T11:32:31.101Z,30.68
2018-08-09T11:33:31.096Z,30.76
2018-08-09T11:34:31.082Z,30.78
2018-08-09T11:35:31.091Z,30.85
2018-08-09T11:36:31.086Z,31.00
2018-08-09T11:37:31.042Z,31.10
2018-08-09T11:38:31.038Z,31.22
2018-08-09T11:39:31.025Z,31.35
2018-08-09T11:40:31.063Z,31.30
2018-08-09T11:41:31.004Z,31.35
2018-08-09T11:42:30.987Z,31.35
2018-08-09T11:43:30.979Z,31.35
2018-08-09T11:44:30.978Z,31.31
2018-08-09T11:45:30.985Z,31.45
2018-08-09T11:46:30.958Z,31.53
2018-08-09T11:47:30.942Z,31.57
2018-08-09T11:48:30.927Z,31.54
2018-08-09T11:49:30.936Z,31.67
2018-08-09T11:50:30.919Z,31.62
2018-08-09T11:51:30.900Z,31.75
2018-08-09T11:52:30.885Z,31.82
2018-08-09T11:53:30.880Z,31.82
2018-08-09T11:54:30.864Z,31.91
2018-08-09T11:55:30.878Z,31.98
2018-08-09T11:56:30.977Z,31.97
2018-08-09T11:57:30.834Z,31.95
2018-08-09T11:58:30.829Z,32.05
2018-08-09T11:59:30.815Z,32.06
2018-08-09T12:00:30.832Z,32.03
2018-08-09T12:01:30.855Z,32.02
2018-08-09T12:02:30.779Z,32.13
2018-08-09T12:03:30.769Z,32.10
2018-08-09T12:04:30.823Z,32.14
2018-08-09T12:05:30.765Z,32.22
2018-08-09T12:06:30.769Z,32.16
2018-08-09T12:07:30.741Z,32.12
2018-08-09T12:08:30.721Z,32.13
2018-08-09T12:09:30.756Z,32.35
2018-08-09T12:10:30.707Z,32.34
2018-08-09T12:11:30.680Z,32.39
2018-08-09T12:12:30.671Z,32.41
2018-08-09T12:13:30.686Z,32.43
2018-08-09T12:14:30.652Z,32.39
2018-08-09T12:15:30.652Z,32.35
2018-08-09T12:16:30.634Z,32.36
2018-08-09T12:17:30.619Z,32.39
2018-08-09T12:18:30.607Z,32.39
2018-08-09T12:19:30.599Z,32.36
2018-08-09T12:20:30.596Z,32.41
2018-08-09T12:21:30.576Z,32.40
2018-08-09T12:22:30.565Z,32.50
2018-08-09T12:23:30.555Z,32.40
2018-08-09T12:24:30.551Z,32.32
2018-08-09T12:25:30.964Z,32.31
2018-08-09T12:26:30.522Z,32.24
2018-08-09T12:27:30.513Z,32.09
2018-08-09T12:28:30.501Z,32.06
2018-08-09T12:29:30.500Z,31.95
2018-08-09T12:30:30.511Z,31.92
2018-08-09T12:31:30.482Z,31.94
2018-08-09T12:32:30.461Z,31.90
2018-08-09T12:33:30.451Z,31.94
2018-08-09T12:34:30.439Z,31.87
2018-08-09T12:35:30.442Z,31.87
2018-08-09T12:36:30.486Z,31.84
2018-08-09T12:37:30.410Z,31.79
2018-08-09T12:38:30.398Z,31.84
2018-08-09T12:39:30.392Z,31.74
2018-08-09T12:40:30.386Z,31.84
2018-08-09T12:41:30.366Z,31.84
2018-08-09T12:42:30.356Z,31.85
2018-08-09T12:43:30.346Z,31.95
2018-08-09T12:44:30.338Z,31.91
2018-08-09T12:45:30.384Z,31.84
2018-08-09T12:46:30.313Z,31.78
2018-08-09T12:47:30.307Z,31.85
2018-08-09T12:48:30.297Z,31.75
2018-08-09T12:49:30.281Z,31.76
2018-08-09T12:50:30.287Z,31.74
2018-08-09T12:51:30.260Z,31.82
2018-08-09T12:52:30.251Z,31.84
2018-08-09T12:53:30.242Z,31.91
2018-08-09T12:54:30.229Z,31.90
2018-08-09T12:55:30.230Z,31.95
2018-08-09T12:56:30.217Z,31.97
2018-08-09T12:57:30.203Z,31.92
2018-08-09T12:58:30.191Z,31.97
2018-08-09T12:59:30.179Z,31.94
2018-08-09T13:00:30.188Z,31.82
2018-08-09T13:01:30.158Z,31.79
2018-08-09T13:02:30.149Z,31.97
2018-08-09T13:03:30.142Z,32.07
2018-08-09T13:04:30.133Z,32.06
2018-08-09T13:05:30.133Z,32.07
2018-08-09T13:06:30.109Z,31.97
2018-08-09T13:07:30.099Z,31.92
2018-08-09T13:08:30.088Z,31.91
2018-08-09T13:09:30.078Z,31.78
2018-08-09T13:10:30.078Z,31.78
2018-08-09T13:11:30.057Z,31.59
2018-08-09T13:12:30.045Z,31.65
2018-08-09T13:13:30.036Z,31.65
2018-08-09T13:14:30.026Z,31.57
2018-08-09T13:15:30.026Z,31.64
2018-08-09T13:16:30.005Z,31.76
2018-08-09T13:17:29.995Z,31.69
2018-08-09T13:18:29.981Z,31.95
2018-08-09T13:19:29.975Z,31.97
2018-08-09T13:20:29.994Z,31.97
2018-08-09T13:21:29.954Z,31.94
2018-08-09T13:22:29.945Z,31.87
2018-08-09T13:23:29.957Z,31.85
2018-08-09T13:24:29.920Z,31.78
2018-08-09T13:25:29.914Z,31.74
2018-08-09T13:26:29.913Z,31.74
2018-08-09T13:27:29.890Z,31.60
2018-08-09T13:28:29.879Z,31.65
2018-08-09T13:29:29.869Z,31.52
2018-08-09T13:30:29.870Z,31.59
2018-08-09T13:31:29.857Z,31.69
2018-08-09T13:32:29.844Z,31.62
2018-08-09T13:33:29.827Z,31.69
2018-08-09T13:34:29.819Z,31.54
2018-08-09T13:35:29.806Z,31.53
2018-08-09T13:36:29.810Z,31.46
2018-08-09T13:37:29.786Z,31.50
2018-08-09T13:38:29.775Z,31.49
2018-08-09T13:39:29.765Z,31.40
2018-08-09T13:40:29.811Z,31.40
2018-08-09T13:41:29.760Z,31.35
2018-08-09T13:42:29.730Z,31.46
2018-08-09T13:43:29.724Z,31.60
2018-08-09T13:44:29.713Z,31.54
2018-08-09T13:45:29.703Z,31.57
2018-08-09T13:46:29.703Z,31.74
2018-08-09T13:47:29.689Z,31.62
2018-08-09T13:48:29.671Z,31.74
2018-08-09T13:49:29.660Z,31.74
2018-08-09T13:50:29.659Z,31.84
2018-08-09T13:51:29.703Z,31.74
2018-08-09T13:52:29.631Z,31.71
2018-08-09T13:53:29.621Z,31.79
2018-08-09T13:54:29.610Z,31.60
2018-08-09T13:55:29.601Z,31.57
2018-08-09T13:56:29.605Z,31.60
2018-08-09T13:57:29.581Z,31.64
2018-08-09T13:58:29.638Z,31.64
2018-08-09T13:59:29.560Z,31.53
2018-08-09T14:00:29.550Z,31.56
2018-08-09T14:01:29.549Z,31.53
2018-08-09T14:02:29.528Z,31.57
2018-08-09T14:03:29.599Z,31.57
2018-08-09T14:04:29.599Z,31.64
2018-08-09T14:05:29.513Z,31.82
2018-08-09T14:06:29.494Z,31.84
2018-08-09T14:07:29.476Z,31.76
2018-08-09T14:08:29.468Z,31.99
2018-08-09T14:09:29.480Z,32.10
2018-08-09T14:10:29.448Z,32.17
2018-08-09T14:11:29.582Z,32.24
2018-08-09T14:12:29.424Z,32.17
2018-08-09T14:13:29.422Z,31.99
2018-08-09T14:14:29.404Z,31.78
2018-08-09T14:15:29.392Z,31.72
2018-08-09T14:16:29.393Z,31.69
2018-08-09T14:17:29.373Z,31.67
2018-08-09T14:18:29.405Z,31.60
2018-08-09T14:19:29.395Z,31.52
2018-08-09T14:20:29.342Z,31.57
2018-08-09T14:21:29.365Z,31.49
2018-08-09T14:22:29.320Z,31.60
2018-08-09T14:23:29.349Z,31.65
2018-08-09T14:24:29.363Z,31.62
2018-08-09T14:25:29.291Z,31.62
2018-08-09T14:26:29.295Z,31.52
2018-08-09T14:27:29.269Z,31.47
2018-08-09T14:28:29.261Z,31.40
2018-08-09T14:29:29.250Z,31.31
2018-08-09T14:30:29.326Z,31.35
2018-08-09T14:31:29.362Z,31.47
2018-08-09T14:32:29.217Z,31.62
2018-08-09T14:33:29.210Z,31.64
2018-08-09T14:34:29.198Z,31.74
2018-08-09T14:35:29.188Z,31.84
2018-08-09T14:36:29.189Z,31.85
2018-08-09T14:37:29.167Z,31.79
2018-08-09T14:38:29.157Z,31.78
2018-08-09T14:39:29.148Z,31.76
2018-08-09T14:40:29.136Z,31.76
2018-08-09T14:41:29.140Z,31.64
2018-08-09T14:42:29.247Z,31.62
2018-08-09T14:43:29.105Z,31.56
2018-08-09T14:44:29.096Z,31.49
2018-08-09T14:45:29.085Z,31.82
2018-08-09T14:46:29.088Z,31.74
2018-08-09T14:47:29.068Z,31.90
2018-08-09T14:48:29.054Z,31.82
2018-08-09T14:49:29.045Z,31.68
2018-08-09T14:50:29.033Z,31.68
2018-08-09T14:51:29.034Z,31.54
2018-08-09T14:52:29.019Z,31.50
2018-08-09T14:53:29.004Z,31.45
2018-08-09T14:54:28.992Z,31.40
2018-08-09T14:55:28.986Z,31.45
2018-08-09T14:56:28.990Z,31.50
2018-08-09T14:57:28.961Z,31.75
2018-08-09T14:58:28.953Z,32.12
2018-08-09T14:59:28.943Z,32.27
2018-08-09T15:00:29.030Z,32.46
2018-08-09T15:01:28.941Z,32.51
2018-08-09T15:02:28.911Z,32.53
2018-08-09T15:03:28.899Z,32.43
2018-08-09T15:04:28.892Z,32.34
2018-08-09T15:05:28.882Z,32.25
2018-08-09T15:06:28.886Z,32.12
2018-08-09T15:07:28.863Z,31.94
2018-08-09T15:08:28.848Z,31.92
2018-08-09T15:09:28.839Z,31.74
2018-08-09T15:10:28.829Z,31.50
2018-08-09T15:11:28.845Z,31.49
2018-08-09T15:12:28.807Z,31.32
2018-08-09T15:13:28.799Z,31.34
2018-08-09T15:14:28.786Z,31.23
2018-08-09T15:15:28.814Z,31.16
2018-08-09T15:16:28.786Z,31.09
2018-08-09T15:17:28.756Z,31.05
2018-08-09T15:18:28.746Z,31.07
2018-08-09T15:19:28.735Z,31.03
2018-08-09T15:20:28.727Z,30.97
2018-08-09T15:21:28.739Z,30.94
2018-08-09T15:22:28.727Z,30.88
2018-08-09T15:23:28.697Z,30.82
2018-08-09T15:24:28.721Z,30.73
2018-08-09T15:25:28.672Z,30.68
2018-08-09T15:26:28.667Z,30.72
2018-08-09T15:27:28.666Z,30.57
2018-08-09T15:28:28.641Z,30.51
2018-08-09T15:29:28.635Z,30.37
2018-08-09T15:30:28.625Z,30.37
2018-08-09T15:31:28.612Z,30.23
2018-08-09T15:32:28.613Z,30.25
2018-08-09T15:33:28.589Z,30.13
2018-08-09T15:34:28.582Z,29.76
2018-08-09T15:35:28.574Z,29.35
2018-08-09T15:36:28.645Z,28.98
2018-08-09T15:37:28.558Z,28.52
2018-08-09T15:38:28.542Z,27.95
2018-08-09T15:39:28.526Z,27.58
2018-08-09T15:40:28.518Z,27.31
2018-08-09T15:41:28.512Z,26.94
2018-08-09T15:42:28.504Z,26.81
2018-08-09T15:43:28.492Z,26.49
2018-08-09T15:44:28.475Z,26.35
2018-08-09T15:45:28.468Z,26.11
2018-08-09T15:46:28.456Z,25.96
2018-08-09T15:47:28.615Z,25.81
2018-08-09T15:48:28.432Z,25.64
2018-08-09T15:49:28.421Z,25.49
2018-08-09T15:50:28.419Z,25.51
2018-08-09T15:51:28.401Z,25.35
2018-08-09T15:52:28.402Z,25.34
2018-08-09T15:53:28.380Z,25.41
2018-08-09T15:54:28.374Z,25.59
2018-08-09T15:55:28.360Z,25.67
2018-08-09T15:56:28.351Z,25.64
2018-08-09T15:57:28.351Z,25.64
2018-08-09T15:58:28.332Z,25.82
2018-08-09T15:59:28.316Z,25.81
2018-08-09T16:00:28.310Z,25.74
2018-08-09T16:01:28.298Z,25.74
2018-08-09T16:02:28.375Z,25.75
2018-08-09T16:03:28.280Z,25.78
2018-08-09T16:04:28.266Z,25.79
2018-08-09T16:05:28.259Z,25.76
2018-08-09T16:06:28.246Z,25.74
2018-08-09T16:07:28.245Z,25.75
2018-08-09T16:08:28.239Z,25.90
2018-08-09T16:09:28.218Z,25.79
2018-08-09T16:10:28.211Z,25.81
2018-08-09T16:11:28.192Z,26.03
2018-08-09T16:12:28.200Z,26.13
2018-08-09T16:13:28.177Z,26.28
2018-08-09T16:14:28.161Z,26.28
2018-08-09T16:15:28.151Z,26.41
2018-08-09T16:16:28.187Z,26.42
2018-08-09T16:17:28.162Z,26.46
2018-08-09T16:18:28.120Z,26.39
2018-08-09T16:19:28.115Z,26.49
2018-08-09T16:20:28.100Z,26.56
2018-08-09T16:21:28.113Z,26.65
2018-08-09T16:22:28.090Z,26.71
2018-08-09T16:23:28.067Z,26.66
2018-08-09T16:24:28.058Z,26.75
2018-08-09T16:25:28.046Z,26.81
2018-08-09T16:26:28.036Z,27.03
2018-08-09T16:27:28.039Z,27.02
2018-08-09T16:28:28.017Z,27.13
2018-08-09T16:29:28.005Z,27.16
2018-08-09T16:30:27.990Z,27.01
2018-08-09T16:31:27.982Z,26.68
2018-08-09T16:32:27.984Z,26.50
2018-08-09T16:33:27.972Z,26.12
2018-08-09T16:34:27.948Z,25.79
2018-08-09T16:35:27.938Z,25.76
2018-08-09T16:36:27.935Z,25.54
2018-08-09T16:37:27.932Z,25.31
2018-08-09T16:38:27.905Z,25.17
2018-08-09T16:39:27.896Z,25.01
2018-08-09T16:40:27.886Z,24.89
2018-08-09T16:41:27.874Z,24.61
2018-08-09T16:42:27.876Z,24.56
2018-08-09T16:43:27.852Z,24.59
2018-08-09T16:44:27.840Z,24.60
2018-08-09T16:45:27.833Z,24.64
2018-08-09T16:46:27.874Z,24.61
2018-08-09T16:47:27.822Z,24.49
2018-08-09T16:48:27.802Z,24.52
2018-08-09T16:49:27.788Z,24.53
2018-08-09T16:50:27.776Z,24.41
2018-08-09T16:51:27.768Z,24.33
2018-08-09T16:52:27.765Z,24.37